KMLJ/MLJ METAR and TAF weather

Enter ICAO airport designator
Station Type Date Time Source
KMLJ METAR 2019/06/26 05:35 UTC NOAA

KMLJ 260535Z AUTO 00000KT 10SM CLR 23/22 A3011 RMK AO2


Station Type Date Time Source
KMLJ Decoded METAR 2019/06/26 05:35 UTC NOAA

Milledgeville, Baldwin County Airport, GA, United States (KMLJ) 33-09-15N 083-14-26W
Jun 26, 2019 - 01:35 AM EDT / 2019.06.26 0535 UTC
Wind: Calm:0
Visibility: 10 mile(s):0
Sky conditions: clear
Temperature: 73 F (23 C)
Dew Point: 71 F (22 C)
Relative Humidity: 94%
Pressure (altimeter): 30.11 in. Hg (1019 hPa)
ob: KMLJ 260535Z AUTO 00000KT 10SM CLR 23/22 A3011 RMK AO2
cycle: 5

Station Type Date Time Source
KMLJ TAF UTC NOAA

Error!

Example: see airport list